sensor_id;sensor_type;location;lat;lon;timestamp;P1;durP1;ratioP1;P2;durP2;ratioP2
16870;SDS011;8552;48.120;-1.456;2023-03-01T00:01:58;28.87;;;19.33;;
16870;SDS011;8552;48.120;-1.456;2023-03-01T00:04:24;30.40;;;19.20;;
16870;SDS011;8552;48.120;-1.456;2023-03-01T00:06:50;28.70;;;19.03;;
16870;SDS011;8552;48.120;-1.456;2023-03-01T00:09:16;27.97;;;17.70;;
16870;SDS011;8552;48.120;-1.456;2023-03-01T00:11:42;29.60;;;18.47;;
16870;SDS011;8552;48.120;-1.456;2023-03-01T00:14:08;28.83;;;18.50;;
16870;SDS011;8552;48.120;-1.456;2023-03-01T00:16:36;27.27;;;18.23;;
16870;SDS011;8552;48.120;-1.456;2023-03-01T00:19:04;29.00;;;18.43;;
16870;SDS011;8552;48.120;-1.456;2023-03-01T00:21:30;29.90;;;18.87;;
16870;SDS011;8552;48.120;-1.456;2023-03-01T00:23:56;30.30;;;18.23;;
16870;SDS011;8552;48.120;-1.456;2023-03-01T00:26:23;29.30;;;18.20;;
16870;SDS011;8552;48.120;-1.456;2023-03-01T00:28:49;28.53;;;18.30;;
16870;SDS011;8552;48.120;-1.456;2023-03-01T00:31:16;27.90;;;18.80;;
16870;SDS011;8552;48.120;-1.456;2023-03-01T00:33:43;29.00;;;19.17;;
16870;SDS011;8552;48.120;-1.456;2023-03-01T00:36:11;27.97;;;18.10;;
16870;SDS011;8552;48.120;-1.456;2023-03-01T00:38:39;27.40;;;17.90;;
16870;SDS011;8552;48.120;-1.456;2023-03-01T00:41:16;26.00;;;18.23;;
16870;SDS011;8552;48.120;-1.456;2023-03-01T00:43:42;29.40;;;18.37;;
16870;SDS011;8552;48.120;-1.456;2023-03-01T00:46:10;28.53;;;17.77;;
16870;SDS011;8552;48.120;-1.456;2023-03-01T00:48:36;25.40;;;16.80;;
16870;SDS011;8552;48.120;-1.456;2023-03-01T00:53:31;27.70;;;18.17;;
16870;SDS011;8552;48.120;-1.456;2023-03-01T00:55:58;28.63;;;17.60;;
16870;SDS011;8552;48.120;-1.456;2023-03-01T00:58:24;30.20;;;19.33;;
16870;SDS011;8552;48.120;-1.456;2023-03-01T01:00:50;26.57;;;18.00;;
16870;SDS011;8552;48.120;-1.456;2023-03-01T01:03:17;24.67;;;17.43;;
16870;SDS011;8552;48.120;-1.456;2023-03-01T01:05:43;27.90;;;16.77;;
16870;SDS011;8552;48.120;-1.456;2023-03-01T01:08:09;26.93;;;16.53;;
16870;SDS011;8552;48.120;-1.456;2023-03-01T01:10:36;27.53;;;17.63;;
16870;SDS011;8552;48.120;-1.456;2023-03-01T01:13:02;26.80;;;16.10;;
16870;SDS011;8552;48.120;-1.456;2023-03-01T01:15:28;25.90;;;17.30;;
16870;SDS011;8552;48.120;-1.456;2023-03-01T01:17:54;23.97;;;16.27;;
16870;SDS011;8552;48.120;-1.456;2023-03-01T01:20:20;25.77;;;16.47;;
16870;SDS011;8552;48.120;-1.456;2023-03-01T01:22:46;25.77;;;17.03;;
16870;SDS011;8552;48.120;-1.456;2023-03-01T01:25:12;27.47;;;17.10;;
16870;SDS011;8552;48.120;-1.456;2023-03-01T01:27:38;26.67;;;16.00;;
16870;SDS011;8552;48.120;-1.456;2023-03-01T01:30:05;21.97;;;15.37;;
16870;SDS011;8552;48.120;-1.456;2023-03-01T01:32:31;26.57;;;16.77;;
16870;SDS011;8552;48.120;-1.456;2023-03-01T01:34:57;27.03;;;16.87;;
16870;SDS011;8552;48.120;-1.456;2023-03-01T01:37:23;25.03;;;15.63;;
16870;SDS011;8552;48.120;-1.456;2023-03-01T01:39:56;24.17;;;16.07;;
16870;SDS011;8552;48.120;-1.456;2023-03-01T01:42:22;22.20;;;14.87;;
16870;SDS011;8552;48.120;-1.456;2023-03-01T01:44:48;23.83;;;16.20;;
16870;SDS011;8552;48.120;-1.456;2023-03-01T01:47:18;22.83;;;16.00;;
16870;SDS011;8552;48.120;-1.456;2023-03-01T01:49:46;25.87;;;15.93;;
16870;SDS011;8552;48.120;-1.456;2023-03-01T01:52:16;24.87;;;15.97;;
16870;SDS011;8552;48.120;-1.456;2023-03-01T01:54:49;24.33;;;16.63;;
16870;SDS011;8552;48.120;-1.456;2023-03-01T01:57:18;25.90;;;16.13;;
16870;SDS011;8552;48.120;-1.456;2023-03-01T01:59:46;23.93;;;16.33;;
16870;SDS011;8552;48.120;-1.456;2023-03-01T02:02:13;26.07;;;16.17;;
16870;SDS011;8552;48.120;-1.456;2023-03-01T02:04:39;24.90;;;15.83;;
16870;SDS011;8552;48.120;-1.456;2023-03-01T02:09:34;26.33;;;16.27;;
16870;SDS011;8552;48.120;-1.456;2023-03-01T02:12:02;21.83;;;15.20;;
16870;SDS011;8552;48.120;-1.456;2023-03-01T02:14:29;24.17;;;15.73;;
16870;SDS011;8552;48.120;-1.456;2023-03-01T02:16:55;22.43;;;14.43;;
16870;SDS011;8552;48.120;-1.456;2023-03-01T02:19:28;23.00;;;14.63;;
16870;SDS011;8552;48.120;-1.456;2023-03-01T02:22:05;25.60;;;16.77;;
16870;SDS011;8552;48.120;-1.456;2023-03-01T02:27:06;25.00;;;15.63;;
16870;SDS011;8552;48.120;-1.456;2023-03-01T02:29:32;28.00;;;16.83;;
16870;SDS011;8552;48.120;-1.456;2023-03-01T02:31:58;24.67;;;16.37;;
16870;SDS011;8552;48.120;-1.456;2023-03-01T02:34:25;24.73;;;16.10;;
16870;SDS011;8552;48.120;-1.456;2023-03-01T02:36:56;26.40;;;16.80;;
16870;SDS011;8552;48.120;-1.456;2023-03-01T02:39:30;22.37;;;15.53;;
16870;SDS011;8552;48.120;-1.456;2023-03-01T02:41:57;23.30;;;15.77;;
16870;SDS011;8552;48.120;-1.456;2023-03-01T02:44:24;24.87;;;16.43;;
16870;SDS011;8552;48.120;-1.456;2023-03-01T02:46:51;23.90;;;14.73;;
16870;SDS011;8552;48.120;-1.456;2023-03-01T02:49:22;23.10;;;14.77;;
16870;SDS011;8552;48.120;-1.456;2023-03-01T02:54:28;26.30;;;17.00;;
16870;SDS011;8552;48.120;-1.456;2023-03-01T02:56:57;23.20;;;14.97;;
16870;SDS011;8552;48.120;-1.456;2023-03-01T02:59:24;23.83;;;15.87;;
16870;SDS011;8552;48.120;-1.456;2023-03-01T03:01:52;23.70;;;15.50;;
16870;SDS011;8552;48.120;-1.456;2023-03-01T03:04:18;22.40;;;15.57;;
16870;SDS011;8552;48.120;-1.456;2023-03-01T03:06:46;21.50;;;15.10;;
16870;SDS011;8552;48.120;-1.456;2023-03-01T03:09:13;23.03;;;15.37;;
16870;SDS011;8552;48.120;-1.456;2023-03-01T03:11:39;22.97;;;15.93;;
16870;SDS011;8552;48.120;-1.456;2023-03-01T03:14:07;23.87;;;15.67;;
16870;SDS011;8552;48.120;-1.456;2023-03-01T03:16:44;25.07;;;14.90;;
16870;SDS011;8552;48.120;-1.456;2023-03-01T03:19:10;24.70;;;14.77;;
16870;SDS011;8552;48.120;-1.456;2023-03-01T03:21:37;20.57;;;14.67;;
16870;SDS011;8552;48.120;-1.456;2023-03-01T03:24:03;21.30;;;14.70;;
16870;SDS011;8552;48.120;-1.456;2023-03-01T03:26:30;24.00;;;15.83;;
16870;SDS011;8552;48.120;-1.456;2023-03-01T03:28:56;23.70;;;15.10;;
16870;SDS011;8552;48.120;-1.456;2023-03-01T03:31:22;21.43;;;15.30;;
16870;SDS011;8552;48.120;-1.456;2023-03-01T03:33:49;23.57;;;15.10;;
16870;SDS011;8552;48.120;-1.456;2023-03-01T03:36:19;21.33;;;15.10;;
16870;SDS011;8552;48.120;-1.456;2023-03-01T03:38:45;23.67;;;14.70;;
16870;SDS011;8552;48.120;-1.456;2023-03-01T03:41:12;22.43;;;15.20;;
16870;SDS011;8552;48.120;-1.456;2023-03-01T03:43:39;23.67;;;14.80;;
16870;SDS011;8552;48.120;-1.456;2023-03-01T03:46:05;22.23;;;14.67;;
16870;SDS011;8552;48.120;-1.456;2023-03-01T03:48:39;20.10;;;14.13;;
16870;SDS011;8552;48.120;-1.456;2023-03-01T03:51:05;24.50;;;15.83;;
16870;SDS011;8552;48.120;-1.456;2023-03-01T03:53:32;23.03;;;15.53;;
16870;SDS011;8552;48.120;-1.456;2023-03-01T03:55:58;22.47;;;14.40;;
16870;SDS011;8552;48.120;-1.456;2023-03-01T03:58:24;23.50;;;15.67;;
16870;SDS011;8552;48.120;-1.456;2023-03-01T04:00:54;21.37;;;13.60;;
16870;SDS011;8552;48.120;-1.456;2023-03-01T04:03:21;24.87;;;15.23;;
16870;SDS011;8552;48.120;-1.456;2023-03-01T04:05:47;21.57;;;13.90;;
16870;SDS011;8552;48.120;-1.456;2023-03-01T04:08:15;23.20;;;14.33;;
16870;SDS011;8552;48.120;-1.456;2023-03-01T04:10:43;23.77;;;14.90;;
16870;SDS011;8552;48.120;-1.456;2023-03-01T04:13:11;22.23;;;14.53;;
16870;SDS011;8552;48.120;-1.456;2023-03-01T04:15:37;21.67;;;14.37;;
16870;SDS011;8552;48.120;-1.456;2023-03-01T04:18:04;22.53;;;14.83;;
16870;SDS011;8552;48.120;-1.456;2023-03-01T04:20:31;24.67;;;16.00;;
16870;SDS011;8552;48.120;-1.456;2023-03-01T04:23:32;21.73;;;14.27;;
16870;SDS011;8552;48.120;-1.456;2023-03-01T04:25:53;21.83;;;14.07;;
16870;SDS011;8552;48.120;-1.456;2023-03-01T04:28:23;21.47;;;14.97;;
16870;SDS011;8552;48.120;-1.456;2023-03-01T04:30:50;22.27;;;14.90;;
16870;SDS011;8552;48.120;-1.456;2023-03-01T04:33:16;21.47;;;15.07;;
16870;SDS011;8552;48.120;-1.456;2023-03-01T04:35:42;23.27;;;14.87;;
16870;SDS011;8552;48.120;-1.456;2023-03-01T04:38:08;21.40;;;14.47;;
16870;SDS011;8552;48.120;-1.456;2023-03-01T04:40:35;26.23;;;14.30;;
16870;SDS011;8552;48.120;-1.456;2023-03-01T04:43:02;24.27;;;15.43;;
16870;SDS011;8552;48.120;-1.456;2023-03-01T04:45:28;21.20;;;14.17;;
16870;SDS011;8552;48.120;-1.456;2023-03-01T04:47:54;22.70;;;14.47;;
16870;SDS011;8552;48.120;-1.456;2023-03-01T04:50:23;23.03;;;14.90;;
16870;SDS011;8552;48.120;-1.456;2023-03-01T04:52:51;22.90;;;14.63;;
16870;SDS011;8552;48.120;-1.456;2023-03-01T04:55:18;19.57;;;13.80;;
16870;SDS011;8552;48.120;-1.456;2023-03-01T04:57:44;21.93;;;13.53;;
16870;SDS011;8552;48.120;-1.456;2023-03-01T05:00:12;24.03;;;14.47;;
16870;SDS011;8552;48.120;-1.456;2023-03-01T05:05:22;22.73;;;13.80;;
16870;SDS011;8552;48.120;-1.456;2023-03-01T05:07:50;20.87;;;14.13;;
16870;SDS011;8552;48.120;-1.456;2023-03-01T05:10:16;22.40;;;13.93;;
16870;SDS011;8552;48.120;-1.456;2023-03-01T05:12:42;22.77;;;14.40;;
16870;SDS011;8552;48.120;-1.456;2023-03-01T05:15:08;21.90;;;14.50;;
16870;SDS011;8552;48.120;-1.456;2023-03-01T05:17:35;21.97;;;14.50;;
16870;SDS011;8552;48.120;-1.456;2023-03-01T05:20:01;25.17;;;14.93;;
16870;SDS011;8552;48.120;-1.456;2023-03-01T05:22:32;24.43;;;14.37;;
16870;SDS011;8552;48.120;-1.456;2023-03-01T05:24:58;21.03;;;13.80;;
16870;SDS011;8552;48.120;-1.456;2023-03-01T05:27:24;20.70;;;13.33;;
16870;SDS011;8552;48.120;-1.456;2023-03-01T05:29:50;19.63;;;13.03;;
16870;SDS011;8552;48.120;-1.456;2023-03-01T05:32:16;22.47;;;13.93;;
16870;SDS011;8552;48.120;-1.456;2023-03-01T05:34:42;19.07;;;12.27;;
16870;SDS011;8552;48.120;-1.456;2023-03-01T05:37:11;22.43;;;12.90;;
16870;SDS011;8552;48.120;-1.456;2023-03-01T05:39:38;19.90;;;13.77;;
16870;SDS011;8552;48.120;-1.456;2023-03-01T05:42:04;21.43;;;13.73;;
16870;SDS011;8552;48.120;-1.456;2023-03-01T05:44:30;22.47;;;14.37;;
16870;SDS011;8552;48.120;-1.456;2023-03-01T05:46:56;20.00;;;13.33;;
16870;SDS011;8552;48.120;-1.456;2023-03-01T05:49:22;22.30;;;13.77;;
16870;SDS011;8552;48.120;-1.456;2023-03-01T05:51:49;20.17;;;13.07;;
16870;SDS011;8552;48.120;-1.456;2023-03-01T05:54:16;23.40;;;12.70;;
16870;SDS011;8552;48.120;-1.456;2023-03-01T05:56:42;21.43;;;14.13;;
16870;SDS011;8552;48.120;-1.456;2023-03-01T05:59:09;19.30;;;12.63;;
16870;SDS011;8552;48.120;-1.456;2023-03-01T06:01:35;21.17;;;13.43;;
16870;SDS011;8552;48.120;-1.456;2023-03-01T06:04:02;22.30;;;13.83;;
16870;SDS011;8552;48.120;-1.456;2023-03-01T06:06:28;24.10;;;14.60;;
16870;SDS011;8552;48.120;-1.456;2023-03-01T06:08:54;21.17;;;13.60;;
16870;SDS011;8552;48.120;-1.456;2023-03-01T06:11:20;21.53;;;13.17;;
16870;SDS011;8552;48.120;-1.456;2023-03-01T06:13:47;20.87;;;12.83;;
16870;SDS011;8552;48.120;-1.456;2023-03-01T06:16:13;21.60;;;14.07;;
16870;SDS011;8552;48.120;-1.456;2023-03-01T06:18:40;22.03;;;13.90;;
16870;SDS011;8552;48.120;-1.456;2023-03-01T06:21:07;23.70;;;13.83;;
16870;SDS011;8552;48.120;-1.456;2023-03-01T06:23:33;19.63;;;13.30;;
16870;SDS011;8552;48.120;-1.456;2023-03-01T06:25:59;22.77;;;14.37;;
16870;SDS011;8552;48.120;-1.456;2023-03-01T06:28:25;19.67;;;12.80;;
16870;SDS011;8552;48.120;-1.456;2023-03-01T06:30:51;21.93;;;13.50;;
16870;SDS011;8552;48.120;-1.456;2023-03-01T06:33:18;21.10;;;13.13;;
16870;SDS011;8552;48.120;-1.456;2023-03-01T06:35:49;20.70;;;11.47;;
16870;SDS011;8552;48.120;-1.456;2023-03-01T06:38:15;20.50;;;12.57;;
16870;SDS011;8552;48.120;-1.456;2023-03-01T06:40:43;19.63;;;12.87;;
16870;SDS011;8552;48.120;-1.456;2023-03-01T06:43:09;19.53;;;11.27;;
16870;SDS011;8552;48.120;-1.456;2023-03-01T06:45:36;20.57;;;11.57;;
16870;SDS011;8552;48.120;-1.456;2023-03-01T06:48:05;19.50;;;12.77;;
16870;SDS011;8552;48.120;-1.456;2023-03-01T06:50:32;17.93;;;12.07;;
16870;SDS011;8552;48.120;-1.456;2023-03-01T06:52:58;18.57;;;11.83;;
16870;SDS011;8552;48.120;-1.456;2023-03-01T06:55:24;20.63;;;12.97;;
16870;SDS011;8552;48.120;-1.456;2023-03-01T06:57:54;19.27;;;12.73;;
16870;SDS011;8552;48.120;-1.456;2023-03-01T07:00:21;19.93;;;12.40;;
16870;SDS011;8552;48.120;-1.456;2023-03-01T07:02:47;18.00;;;11.93;;
16870;SDS011;8552;48.120;-1.456;2023-03-01T07:05:13;21.30;;;13.43;;
16870;SDS011;8552;48.120;-1.456;2023-03-01T07:07:39;21.10;;;12.10;;
16870;SDS011;8552;48.120;-1.456;2023-03-01T07:10:05;21.47;;;12.03;;
16870;SDS011;8552;48.120;-1.456;2023-03-01T07:12:31;19.27;;;11.20;;
16870;SDS011;8552;48.120;-1.456;2023-03-01T07:14:57;16.80;;;11.20;;
16870;SDS011;8552;48.120;-1.456;2023-03-01T07:17:23;20.83;;;11.40;;
16870;SDS011;8552;48.120;-1.456;2023-03-01T07:19:49;20.10;;;12.23;;
16870;SDS011;8552;48.120;-1.456;2023-03-01T07:22:15;16.63;;;11.30;;
16870;SDS011;8552;48.120;-1.456;2023-03-01T07:24:42;19.27;;;12.47;;
16870;SDS011;8552;48.120;-1.456;2023-03-01T07:27:08;21.40;;;11.80;;
16870;SDS011;8552;48.120;-1.456;2023-03-01T07:29:34;20.10;;;11.73;;
16870;SDS011;8552;48.120;-1.456;2023-03-01T07:32:01;22.97;;;13.00;;
16870;SDS011;8552;48.120;-1.456;2023-03-01T07:34:27;16.57;;;11.13;;
16870;SDS011;8552;48.120;-1.456;2023-03-01T07:36:53;17.77;;;11.13;;
16870;SDS011;8552;48.120;-1.456;2023-03-01T07:39:20;17.83;;;11.33;;
16870;SDS011;8552;48.120;-1.456;2023-03-01T07:41:48;19.83;;;11.87;;
16870;SDS011;8552;48.120;-1.456;2023-03-01T07:44:14;19.20;;;11.50;;
16870;SDS011;8552;48.120;-1.456;2023-03-01T07:46:41;18.20;;;11.80;;
16870;SDS011;8552;48.120;-1.456;2023-03-01T07:49:07;23.20;;;13.27;;
16870;SDS011;8552;48.120;-1.456;2023-03-01T07:51:33;20.37;;;11.03;;
16870;SDS011;8552;48.120;-1.456;2023-03-01T07:53:59;26.77;;;15.07;;
16870;SDS011;8552;48.120;-1.456;2023-03-01T07:56:25;28.70;;;17.07;;
16870;SDS011;8552;48.120;-1.456;2023-03-01T07:58:51;26.57;;;16.47;;
16870;SDS011;8552;48.120;-1.456;2023-03-01T08:01:18;22.80;;;14.33;;
16870;SDS011;8552;48.120;-1.456;2023-03-01T08:03:45;21.87;;;15.30;;
16870;SDS011;8552;48.120;-1.456;2023-03-01T08:06:12;24.07;;;16.90;;
16870;SDS011;8552;48.120;-1.456;2023-03-01T08:08:39;22.97;;;14.70;;
16870;SDS011;8552;48.120;-1.456;2023-03-01T08:11:05;22.77;;;15.30;;
16870;SDS011;8552;48.120;-1.456;2023-03-01T08:13:32;25.00;;;16.73;;
16870;SDS011;8552;48.120;-1.456;2023-03-01T08:16:02;18.13;;;11.67;;
16870;SDS011;8552;48.120;-1.456;2023-03-01T08:18:28;25.47;;;18.80;;
16870;SDS011;8552;48.120;-1.456;2023-03-01T08:20:54;22.00;;;14.63;;
16870;SDS011;8552;48.120;-1.456;2023-03-01T08:23:20;21.60;;;11.83;;
16870;SDS011;8552;48.120;-1.456;2023-03-01T08:25:46;18.63;;;12.77;;
16870;SDS011;8552;48.120;-1.456;2023-03-01T08:28:12;20.27;;;12.47;;
16870;SDS011;8552;48.120;-1.456;2023-03-01T08:30:38;20.37;;;13.00;;
16870;SDS011;8552;48.120;-1.456;2023-03-01T08:33:04;25.33;;;13.60;;
16870;SDS011;8552;48.120;-1.456;2023-03-01T08:35:30;18.93;;;11.57;;
16870;SDS011;8552;48.120;-1.456;2023-03-01T08:37:56;25.83;;;16.00;;
16870;SDS011;8552;48.120;-1.456;2023-03-01T08:40:22;18.97;;;12.93;;
16870;SDS011;8552;48.120;-1.456;2023-03-01T08:42:49;21.80;;;13.53;;
16870;SDS011;8552;48.120;-1.456;2023-03-01T08:45:15;18.57;;;12.33;;
16870;SDS011;8552;48.120;-1.456;2023-03-01T08:47:43;17.73;;;12.40;;
16870;SDS011;8552;48.120;-1.456;2023-03-01T08:50:10;23.60;;;12.67;;
16870;SDS011;8552;48.120;-1.456;2023-03-01T08:52:36;20.47;;;11.70;;
16870;SDS011;8552;48.120;-1.456;2023-03-01T08:55:03;25.80;;;17.57;;
16870;SDS011;8552;48.120;-1.456;2023-03-01T08:57:29;23.20;;;13.40;;
16870;SDS011;8552;48.120;-1.456;2023-03-01T08:59:55;19.97;;;13.47;;
16870;SDS011;8552;48.120;-1.456;2023-03-01T09:02:22;26.17;;;15.07;;
16870;SDS011;8552;48.120;-1.456;2023-03-01T09:04:48;23.87;;;15.20;;
16870;SDS011;8552;48.120;-1.456;2023-03-01T09:07:14;17.53;;;11.30;;
16870;SDS011;8552;48.120;-1.456;2023-03-01T09:09:40;18.30;;;12.43;;
16870;SDS011;8552;48.120;-1.456;2023-03-01T09:12:06;19.53;;;11.30;;
16870;SDS011;8552;48.120;-1.456;2023-03-01T09:14:32;18.87;;;11.77;;
16870;SDS011;8552;48.120;-1.456;2023-03-01T09:16:58;18.60;;;11.47;;
16870;SDS011;8552;48.120;-1.456;2023-03-01T09:19:27;20.37;;;12.17;;
16870;SDS011;8552;48.120;-1.456;2023-03-01T09:21:53;17.93;;;10.30;;
16870;SDS011;8552;48.120;-1.456;2023-03-01T09:24:21;17.37;;;10.53;;
16870;SDS011;8552;48.120;-1.456;2023-03-01T09:26:48;17.93;;;11.83;;
16870;SDS011;8552;48.120;-1.456;2023-03-01T09:29:15;19.00;;;11.77;;
16870;SDS011;8552;48.120;-1.456;2023-03-01T09:31:41;19.53;;;11.40;;
16870;SDS011;8552;48.120;-1.456;2023-03-01T09:34:08;22.00;;;13.33;;
16870;SDS011;8552;48.120;-1.456;2023-03-01T09:36:34;21.43;;;13.07;;
16870;SDS011;8552;48.120;-1.456;2023-03-01T09:39:00;22.03;;;14.77;;
16870;SDS011;8552;48.120;-1.456;2023-03-01T09:44:15;22.33;;;14.93;;
16870;SDS011;8552;48.120;-1.456;2023-03-01T09:46:44;18.83;;;13.17;;
16870;SDS011;8552;48.120;-1.456;2023-03-01T09:49:12;20.57;;;12.93;;
16870;SDS011;8552;48.120;-1.456;2023-03-01T09:51:42;20.63;;;13.20;;
16870;SDS011;8552;48.120;-1.456;2023-03-01T09:54:08;24.00;;;16.63;;
16870;SDS011;8552;48.120;-1.456;2023-03-01T09:56:44;23.53;;;13.67;;
16870;SDS011;8552;48.120;-1.456;2023-03-01T10:01:56;22.93;;;13.63;;
16870;SDS011;8552;48.120;-1.456;2023-03-01T10:09:38;20.87;;;12.87;;
16870;SDS011;8552;48.120;-1.456;2023-03-01T10:12:24;20.33;;;12.87;;
16870;SDS011;8552;48.120;-1.456;2023-03-01T10:17:37;21.00;;;12.37;;
16870;SDS011;8552;48.120;-1.456;2023-03-01T10:20:14;19.10;;;11.63;;
16870;SDS011;8552;48.120;-1.456;2023-03-01T10:22:41;19.67;;;12.97;;
16870;SDS011;8552;48.120;-1.456;2023-03-01T10:25:13;19.60;;;11.63;;
16870;SDS011;8552;48.120;-1.456;2023-03-01T10:30:31;14.87;;;9.70;;
16870;SDS011;8552;48.120;-1.456;2023-03-01T10:32:58;18.73;;;11.70;;
16870;SDS011;8552;48.120;-1.456;2023-03-01T10:35:25;21.50;;;11.13;;
16870;SDS011;8552;48.120;-1.456;2023-03-01T10:40:31;17.13;;;11.73;;
16870;SDS011;8552;48.120;-1.456;2023-03-01T10:42:58;21.27;;;12.83;;
16870;SDS011;8552;48.120;-1.456;2023-03-01T11:43:33;17.30;;;12.97;;
16870;SDS011;8552;48.120;-1.456;2023-03-01T12:16:40;20.60;;;14.60;;
16870;SDS011;8552;48.120;-1.456;2023-03-01T12:32:54;17.40;;;14.52;;
16870;SDS011;8552;48.120;-1.456;2023-03-01T12:41:11;22.30;;;15.30;;
16870;SDS011;8552;48.120;-1.456;2023-03-01T12:49:28;19.08;;;13.52;;
16870;SDS011;8552;48.120;-1.456;2023-03-01T12:54:53;17.08;;;12.65;;
16870;SDS011;8552;48.120;-1.456;2023-03-01T13:02:37;15.03;;;12.10;;
16870;SDS011;8552;48.120;-1.456;2023-03-01T13:08:19;17.40;;;12.27;;
16870;SDS011;8552;48.120;-1.456;2023-03-01T13:10:56;13.75;;;11.73;;
16870;SDS011;8552;48.120;-1.456;2023-03-01T13:13:26;15.25;;;11.23;;
16870;SDS011;8552;48.120;-1.456;2023-03-01T13:15:53;12.88;;;10.57;;
16870;SDS011;8552;48.120;-1.456;2023-03-01T13:20:57;17.02;;;12.23;;
16870;SDS011;8552;48.120;-1.456;2023-03-01T13:23:26;13.68;;;11.02;;
16870;SDS011;8552;48.120;-1.456;2023-03-01T13:26:11;14.30;;;10.23;;
16870;SDS011;8552;48.120;-1.456;2023-03-01T13:33:43;13.32;;;11.55;;
16870;SDS011;8552;48.120;-1.456;2023-03-01T13:46:48;12.43;;;10.23;;
16870;SDS011;8552;48.120;-1.456;2023-03-01T13:49:16;11.40;;;10.02;;
16870;SDS011;8552;48.120;-1.456;2023-03-01T13:51:46;13.98;;;11.00;;
16870;SDS011;8552;48.120;-1.456;2023-03-01T13:54:14;13.77;;;11.20;;
16870;SDS011;8552;48.120;-1.456;2023-03-01T13:56:41;13.45;;;10.80;;
16870;SDS011;8552;48.120;-1.456;2023-03-01T13:59:19;15.80;;;12.98;;
16870;SDS011;8552;48.120;-1.456;2023-03-01T14:01:56;13.45;;;10.13;;
16870;SDS011;8552;48.120;-1.456;2023-03-01T14:04:28;11.90;;;10.35;;
16870;SDS011;8552;48.120;-1.456;2023-03-01T14:09:48;10.93;;;9.70;;
16870;SDS011;8552;48.120;-1.456;2023-03-01T14:15:18;12.45;;;9.32;;
16870;SDS011;8552;48.120;-1.456;2023-03-01T14:20:54;12.20;;;10.18;;
16870;SDS011;8552;48.120;-1.456;2023-03-01T14:23:21;12.18;;;10.25;;
16870;SDS011;8552;48.120;-1.456;2023-03-01T14:25:55;14.10;;;9.60;;
16870;SDS011;8552;48.120;-1.456;2023-03-01T14:28:26;11.30;;;8.77;;
16870;SDS011;8552;48.120;-1.456;2023-03-01T14:30:57;10.18;;;7.97;;
16870;SDS011;8552;48.120;-1.456;2023-03-01T14:33:30;9.38;;;8.38;;
16870;SDS011;8552;48.120;-1.456;2023-03-01T14:35:59;9.15;;;7.30;;
16870;SDS011;8552;48.120;-1.456;2023-03-01T14:38:34;9.50;;;7.07;;
16870;SDS011;8552;48.120;-1.456;2023-03-01T14:41:07;10.82;;;7.75;;
16870;SDS011;8552;48.120;-1.456;2023-03-01T14:43:50;8.50;;;7.50;;
16870;SDS011;8552;48.120;-1.456;2023-03-01T14:49:09;10.07;;;7.85;;
16870;SDS011;8552;48.120;-1.456;2023-03-01T14:51:46;9.30;;;7.75;;
16870;SDS011;8552;48.120;-1.456;2023-03-01T14:57:04;10.52;;;7.80;;
16870;SDS011;8552;48.120;-1.456;2023-03-01T14:59:32;9.35;;;7.70;;
16870;SDS011;8552;48.120;-1.456;2023-03-01T15:01:59;10.52;;;7.75;;
16870;SDS011;8552;48.120;-1.456;2023-03-01T15:04:25;9.18;;;7.93;;
16870;SDS011;8552;48.120;-1.456;2023-03-01T15:06:53;11.52;;;8.80;;
16870;SDS011;8552;48.120;-1.456;2023-03-01T15:09:21;15.05;;;9.70;;
16870;SDS011;8552;48.120;-1.456;2023-03-01T15:11:49;15.13;;;11.00;;
16870;SDS011;8552;48.120;-1.456;2023-03-01T15:14:25;12.55;;;9.65;;
16870;SDS011;8552;48.120;-1.456;2023-03-01T15:17:14;13.65;;;10.70;;
16870;SDS011;8552;48.120;-1.456;2023-03-01T15:19:59;19.00;;;10.80;;
16870;SDS011;8552;48.120;-1.456;2023-03-01T15:22:47;13.98;;;10.23;;
16870;SDS011;8552;48.120;-1.456;2023-03-01T15:25:19;19.38;;;12.65;;
16870;SDS011;8552;48.120;-1.456;2023-03-01T15:27:51;24.67;;;16.40;;
16870;SDS011;8552;48.120;-1.456;2023-03-01T15:30:25;27.20;;;19.05;;
16870;SDS011;8552;48.120;-1.456;2023-03-01T15:35:53;24.20;;;16.95;;
16870;SDS011;8552;48.120;-1.456;2023-03-01T15:38:49;22.13;;;15.63;;
16870;SDS011;8552;48.120;-1.456;2023-03-01T15:41:26;18.60;;;13.65;;
16870;SDS011;8552;48.120;-1.456;2023-03-01T15:44:00;14.50;;;11.20;;
16870;SDS011;8552;48.120;-1.456;2023-03-01T15:46:44;28.48;;;19.45;;
16870;SDS011;8552;48.120;-1.456;2023-03-01T15:52:02;24.10;;;16.80;;
16870;SDS011;8552;48.120;-1.456;2023-03-01T15:54:29;20.08;;;15.65;;
16870;SDS011;8552;48.120;-1.456;2023-03-01T15:56:55;16.38;;;13.48;;
16870;SDS011;8552;48.120;-1.456;2023-03-01T15:59:21;15.73;;;12.77;;
16870;SDS011;8552;48.120;-1.456;2023-03-01T16:01:47;14.07;;;11.60;;
16870;SDS011;8552;48.120;-1.456;2023-03-01T16:04:14;15.13;;;11.60;;
16870;SDS011;8552;48.120;-1.456;2023-03-01T16:06:51;15.02;;;12.07;;
16870;SDS011;8552;48.120;-1.456;2023-03-01T16:09:22;16.10;;;12.07;;
16870;SDS011;8552;48.120;-1.456;2023-03-01T16:11:49;19.17;;;14.10;;
16870;SDS011;8552;48.120;-1.456;2023-03-01T16:14:15;17.63;;;13.75;;
16870;SDS011;8552;48.120;-1.456;2023-03-01T16:16:42;19.27;;;12.43;;
16870;SDS011;8552;48.120;-1.456;2023-03-01T16:19:08;18.58;;;12.80;;
16870;SDS011;8552;48.120;-1.456;2023-03-01T16:21:35;14.25;;;11.85;;
16870;SDS011;8552;48.120;-1.456;2023-03-01T16:24:01;17.23;;;12.63;;
16870;SDS011;8552;48.120;-1.456;2023-03-01T16:26:26;16.45;;;12.02;;
16870;SDS011;8552;48.120;-1.456;2023-03-01T16:28:56;15.05;;;12.18;;
16870;SDS011;8552;48.120;-1.456;2023-03-01T16:31:22;18.27;;;13.43;;
16870;SDS011;8552;48.120;-1.456;2023-03-01T16:33:52;13.75;;;11.50;;
16870;SDS011;8552;48.120;-1.456;2023-03-01T16:36:19;15.98;;;12.55;;
16870;SDS011;8552;48.120;-1.456;2023-03-01T16:38:45;17.27;;;12.15;;
16870;SDS011;8552;48.120;-1.456;2023-03-01T16:41:12;16.77;;;12.00;;
16870;SDS011;8552;48.120;-1.456;2023-03-01T16:43:39;13.73;;;11.68;;
16870;SDS011;8552;48.120;-1.456;2023-03-01T16:46:12;13.80;;;10.65;;
16870;SDS011;8552;48.120;-1.456;2023-03-01T16:48:40;13.85;;;11.82;;
16870;SDS011;8552;48.120;-1.456;2023-03-01T16:51:06;13.95;;;11.30;;
16870;SDS011;8552;48.120;-1.456;2023-03-01T16:53:32;16.80;;;12.25;;
16870;SDS011;8552;48.120;-1.456;2023-03-01T16:56:00;17.45;;;11.77;;
16870;SDS011;8552;48.120;-1.456;2023-03-01T16:58:28;13.55;;;9.82;;
16870;SDS011;8552;48.120;-1.456;2023-03-01T17:00:54;13.35;;;10.45;;
16870;SDS011;8552;48.120;-1.456;2023-03-01T17:03:21;13.38;;;10.05;;
16870;SDS011;8552;48.120;-1.456;2023-03-01T17:05:48;11.50;;;9.45;;
16870;SDS011;8552;48.120;-1.456;2023-03-01T17:08:14;14.95;;;10.45;;
16870;SDS011;8552;48.120;-1.456;2023-03-01T17:10:40;12.00;;;9.50;;
16870;SDS011;8552;48.120;-1.456;2023-03-01T17:13:09;13.90;;;10.15;;
16870;SDS011;8552;48.120;-1.456;2023-03-01T17:15:41;22.25;;;16.00;;
16870;SDS011;8552;48.120;-1.456;2023-03-01T17:18:07;14.70;;;11.10;;
16870;SDS011;8552;48.120;-1.456;2023-03-01T17:20:34;18.08;;;14.90;;
16870;SDS011;8552;48.120;-1.456;2023-03-01T17:23:01;25.05;;;17.80;;
16870;SDS011;8552;48.120;-1.456;2023-03-01T17:25:27;51.33;;;39.72;;
16870;SDS011;8552;48.120;-1.456;2023-03-01T17:27:53;19.77;;;15.53;;
16870;SDS011;8552;48.120;-1.456;2023-03-01T17:30:18;14.83;;;11.87;;
16870;SDS011;8552;48.120;-1.456;2023-03-01T17:32:44;18.20;;;14.83;;
16870;SDS011;8552;48.120;-1.456;2023-03-01T17:35:10;14.43;;;11.40;;
16870;SDS011;8552;48.120;-1.456;2023-03-01T17:37:36;19.07;;;15.17;;
16870;SDS011;8552;48.120;-1.456;2023-03-01T17:40:03;21.33;;;15.57;;
16870;SDS011;8552;48.120;-1.456;2023-03-01T17:42:31;21.87;;;15.37;;
16870;SDS011;8552;48.120;-1.456;2023-03-01T17:44:56;18.73;;;13.40;;